Time;durP1;ratioP1;P1;durP2;ratioP2;P2;SDS_P1;SDS_P2;PMS_P1;PMS_P2;Temp;Humidity;BMP_temperature;BMP_pressure;BME280_temperature;BME280_humidity;BME280_pressure;Samples;Min_cycle;Max_cycle;Signal;HPM_P1;HPM_P2
2023/09/07 00:00:39;;;;;;;1.88;0.75;;;16.50;90.80;;;15.33;80.27;100851.06;10296929;28;96865;-90
2023/09/07 00:05:44;;;;;;;1.13;0.65;;;16.40;90.80;;;15.23;80.61;100849.50;10277341;28;96675;-90
2023/09/07 00:10:48;;;;;;;0.95;0.60;;;16.30;90.90;;;15.18;80.48;100853.72;10302063;28;96622;-90
2023/09/07 00:15:51;;;;;;;2.65;0.98;;;16.20;90.90;;;15.11;80.78;100847.41;10298345;28;98986;-90
2023/09/07 00:20:55;;;;;;;1.20;0.60;;;16.20;91.20;;;15.02;81.09;100849.34;10331886;28;96519;-90
2023/09/07 00:25:59;;;;;;;1.65;0.80;;;16.10;91.20;;;14.97;81.33;100841.84;10315976;28;98413;-90
2023/09/07 00:31:03;;;;;;;1.17;0.65;;;16.00;91.50;;;14.90;81.42;100840.91;10311400;28;96715;-90
2023/09/07 00:36:07;;;;;;;1.17;0.60;;;16.00;91.40;;;14.81;81.74;100830.44;10319062;28;96497;-90
2023/09/07 00:41:12;;;;;;;0.82;0.60;;;15.90;91.60;;;14.81;82.06;100836.63;10318778;28;96705;-90
2023/09/07 00:46:17;;;;;;;1.00;0.60;;;15.90;91.50;;;14.79;82.46;100844.00;10328695;28;96726;-90
2023/09/07 00:51:20;;;;;;;1.27;0.60;;;15.90;91.70;;;14.75;82.88;100837.34;10303881;28;96676;-90
2023/09/07 00:56:26;;;;;;;1.75;0.82;;;15.90;91.90;;;14.69;82.92;100838.91;10305362;28;97242;-91
2023/09/07 01:01:31;;;;;;;2.13;0.65;;;15.80;92.00;;;14.62;83.21;100832.59;10313765;28;98451;-90
2023/09/07 01:06:45;;;;;;;1.83;0.80;;;15.80;92.30;;;14.58;83.40;100823.28;10304291;28;97233;-91
2023/09/07 01:11:52;;;;;;;1.75;0.68;;;15.70;92.30;;;14.50;83.45;100823.31;10319226;28;96681;-90
2023/09/07 01:16:56;;;;;;;0.98;0.50;;;15.60;92.40;;;14.48;83.48;100825.34;10292236;28;96648;-90
2023/09/07 01:22:01;;;;;;;1.13;0.57;;;15.60;92.40;;;14.42;83.47;100834.06;10275415;28;96529;-90
2023/09/07 01:27:05;;;;;;;1.37;0.70;;;15.50;92.50;;;14.34;84.00;100829.59;10283095;28;96590;-91
2023/09/07 01:32:13;;;;;;;2.58;0.70;;;15.50;92.70;;;14.23;84.50;100829.19;10300667;28;96653;-91
2023/09/07 01:37:17;;;;;;;1.50;0.73;;;15.40;92.90;;;14.16;84.77;100815.69;10303732;28;96620;-92
2023/09/07 01:42:21;;;;;;;1.88;0.80;;;15.30;93.10;;;14.16;85.17;100827.22;10318328;28;96735;-91
2023/09/07 01:47:25;;;;;;;1.65;0.75;;;15.30;93.40;;;14.12;85.38;100835.75;10315471;28;96493;-90
2023/09/07 01:52:31;;;;;;;1.93;0.80;;;15.20;93.30;;;14.12;85.97;100839.25;10276986;28;96499;-90
2023/09/07 01:57:37;;;;;;;2.07;0.80;;;15.20;93.60;;;14.04;86.24;100839.31;10318918;28;96591;-91
2023/09/07 02:02:41;;;;;;;1.00;0.57;;;15.20;93.90;;;14.00;86.09;100848.66;10316433;28;96636;-90
2023/09/07 02:07:46;;;;;;;2.00;0.90;;;15.10;93.90;;;13.95;86.70;100845.69;10310174;28;96749;-90
2023/09/07 02:12:49;;;;;;;0.77;0.50;;;15.10;93.90;;;13.93;87.10;100845.84;10299797;28;97623;-91
2023/09/07 02:17:53;;;;;;;1.13;0.80;;;15.10;94.40;;;13.87;87.34;100843.88;10299474;28;98663;-90
2023/09/07 02:22:56;;;;;;;1.20;0.67;;;15.00;94.60;;;13.77;87.79;100842.41;10288242;28;96631;-91
2023/09/07 02:28:00;;;;;;;0.97;0.50;;;14.90;94.90;;;13.69;88.33;100848.63;10297831;28;96582;-92
2023/09/07 02:33:04;;;;;;;2.47;0.70;;;14.80;95.40;;;13.62;88.47;100850.31;10296097;28;96554;-92
2023/09/07 02:38:08;;;;;;;7.72;3.05;;;14.70;95.50;;;13.60;88.55;100853.16;10301870;28;96646;-92
2023/09/07 02:43:12;;;;;;;3.10;1.20;;;14.70;95.30;;;13.51;88.54;100835.50;10297370;28;96828;-92
2023/09/07 02:48:16;;;;;;;2.03;1.08;;;14.70;95.30;;;13.60;88.64;100842.47;10302884;28;96731;-90
2023/09/07 02:53:19;;;;;;;3.13;1.07;;;14.70;95.50;;;13.58;88.55;100849.81;10301002;28;96664;-91
2023/09/07 02:58:24;;;;;;;1.67;0.70;;;14.70;95.60;;;13.52;88.44;100847.84;10307233;28;96634;-90
2023/09/07 03:03:27;;;;;;;1.23;0.80;;;14.70;95.90;;;13.51;88.45;100864.03;10274754;28;97114;-91
2023/09/07 03:08:31;;;;;;;1.53;0.70;;;14.60;96.10;;;13.44;88.59;100855.88;10273236;28;96706;-91
2023/09/07 03:13:35;;;;;;;1.20;0.50;;;14.50;96.60;;;13.36;89.04;100856.72;10277596;28;96512;-91
2023/09/07 03:18:40;;;;;;;1.53;0.90;;;14.50;96.60;;;13.36;88.98;100859.38;10293043;28;98690;-90
2023/09/07 03:23:44;;;;;;;1.90;0.90;;;14.50;97.00;;;13.29;89.43;100850.38;10316668;28;97835;-90
2023/09/07 03:28:48;;;;;;;1.83;0.90;;;14.40;96.70;;;13.23;89.10;100851.06;10289246;28;96890;-90
2023/09/07 03:33:51;;;;;;;2.13;0.87;;;14.40;96.70;;;13.25;89.29;100854.38;10312176;28;98164;-90
2023/09/07 03:38:55;;;;;;;1.57;0.70;;;14.40;96.80;;;13.22;89.30;100859.25;10295701;28;96526;-90
2023/09/07 03:43:59;;;;;;;1.77;0.80;;;14.30;96.90;;;13.18;89.56;100853.38;10289255;28;97061;-90
2023/09/07 03:49:03;;;;;;;1.27;0.70;;;14.30;96.90;;;13.19;89.78;100864.88;10325773;28;96707;-90
2023/09/07 03:54:06;;;;;;;2.03;0.90;;;14.30;96.80;;;13.19;89.98;100859.53;10296836;28;96780;-90
2023/09/07 03:59:11;;;;;;;0.73;0.53;;;14.40;97.20;;;13.16;90.30;100867.91;10299417;28;97339;-90
2023/09/07 04:04:15;;;;;;;2.57;1.00;;;14.30;97.10;;;13.05;90.15;100853.88;10292228;28;96762;-90
2023/09/07 04:09:19;;;;;;;1.20;0.70;;;14.30;97.30;;;13.03;90.16;100866.56;10312828;28;96819;-91
2023/09/07 04:14:22;;;;;;;1.50;0.83;;;14.20;97.30;;;13.01;90.53;100875.72;10297175;28;96987;-91
2023/09/07 04:19:25;;;;;;;1.53;0.80;;;14.10;97.30;;;13.00;90.82;100882.06;10313300;28;96861;-91
2023/09/07 04:24:29;;;;;;;1.43;0.60;;;14.10;97.60;;;12.91;90.80;100878.59;10319343;28;96428;-91
2023/09/07 04:29:33;;;;;;;3.00;1.40;;;14.10;97.60;;;12.96;90.74;100880.75;10297007;28;96867;-91
2023/09/07 04:34:36;;;;;;;2.70;1.10;;;14.10;97.60;;;12.94;91.16;100882.75;10287690;28;96753;-92
2023/09/07 04:39:40;;;;;;;1.77;0.77;;;14.10;97.70;;;12.93;91.45;100865.91;10311778;28;96735;-91
2023/09/07 04:44:43;;;;;;;2.50;0.87;;;14.10;98.00;;;12.99;91.67;100875.91;10303343;28;99805;-88
2023/09/07 04:49:50;;;;;;;2.20;0.80;;;14.20;98.10;;;13.07;92.46;100881.25;10300944;28;97415;-88
2023/09/07 04:54:55;;;;;;;1.83;0.90;;;14.30;98.20;;;13.18;92.62;100879.22;10313984;28;96754;-89
2023/09/07 04:59:59;;;;;;;2.20;0.90;;;14.30;98.30;;;13.27;92.88;100886.28;10300024;28;97775;-88
2023/09/07 05:05:04;;;;;;;1.60;0.93;;;14.40;98.70;;;13.42;93.34;100887.22;10301937;28;96635;-89
2023/09/07 05:10:08;;;;;;;1.67;1.07;;;14.60;98.50;;;13.56;93.25;100894.56;10292997;28;96653;-89
2023/09/07 05:15:12;;;;;;;2.73;1.20;;;14.70;98.40;;;13.71;93.07;100891.19;10284783;28;98553;-88
2023/09/07 05:20:16;;;;;;;1.80;0.87;;;14.90;98.60;;;13.90;93.07;100896.13;10298404;28;98569;-90
2023/09/07 05:25:20;;;;;;;1.47;1.00;;;15.00;98.50;;;14.07;92.99;100892.38;10304189;28;96898;-90
2023/09/07 05:30:24;;;;;;;2.05;0.90;;;15.20;98.40;;;14.30;92.68;100894.28;10324541;28;97737;-89
2023/09/07 05:35:29;;;;;;;2.28;1.00;;;15.40;98.40;;;14.49;92.15;100887.69;10313558;28;96394;-90
2023/09/07 05:40:40;;;;;;;1.35;0.80;;;15.60;98.20;;;14.68;91.53;100890.72;10292228;28;96761;-91
2023/09/07 05:45:44;;;;;;;2.20;0.80;;;15.80;98.00;;;14.86;90.94;100889.59;10320086;28;96534;-90
2023/09/07 05:50:48;;;;;;;0.95;0.50;;;16.00;98.00;;;15.10;89.94;100893.94;10287669;28;97753;-90
2023/09/07 05:55:52;;;;;;;1.70;0.70;;;16.20;97.70;;;15.30;89.45;100900.47;10304683;28;96377;-89
2023/09/07 06:00:57;;;;;;;2.13;1.00;;;16.40;97.50;;;15.48;88.88;100900.13;10304126;28;97106;-90
2023/09/07 06:06:02;;;;;;;1.73;0.95;;;16.60;97.30;;;15.62;88.08;100893.97;10300600;28;97036;-90
2023/09/07 06:11:06;;;;;;;1.60;0.73;;;16.80;97.20;;;15.86;87.50;100906.25;10319363;28;96668;-90
2023/09/07 06:16:11;;;;;;;1.27;0.60;;;17.00;97.10;;;16.11;87.15;100912.16;10317830;28;96631;-91
2023/09/07 06:21:14;;;;;;;1.98;0.82;;;17.20;96.80;;;16.37;86.37;100924.22;10321108;28;96556;-90
2023/09/07 06:26:19;;;;;;;2.28;0.95;;;17.50;96.80;;;16.55;85.19;100914.78;10310704;28;97039;-89
2023/09/07 06:31:22;;;;;;;1.80;0.65;;;17.70;96.40;;;16.82;84.17;100913.22;10342906;28;96253;-90
2023/09/07 06:36:26;;;;;;;1.25;0.68;;;17.90;96.30;;;17.05;83.73;100907.66;10309713;28;96523;-90
2023/09/07 06:41:48;;;;;;;1.83;0.80;;;18.20;96.10;;;17.38;82.12;100899.84;10306635;28;96722;-91
2023/09/07 06:46:52;;;;;;;1.10;0.73;;;18.50;95.70;;;17.74;79.05;100917.72;10295862;28;96571;-90
2023/09/07 06:51:59;;;;;;;1.45;0.88;;;18.80;95.10;;;18.05;77.67;100906.53;10301909;28;96592;-90
2023/09/07 06:57:06;;;;;;;1.15;0.50;;;19.20;94.70;;;18.42;76.91;100920.53;10300618;28;96475;-90
2023/09/07 07:02:09;;;;;;;1.05;0.50;;;19.50;94.30;;;18.74;74.78;100915.47;10300993;28;97350;-91
2023/09/07 07:07:13;;;;;;;1.23;0.65;;;19.90;93.80;;;19.03;72.80;100915.13;10318318;28;96876;-91
2023/09/07 07:12:17;;;;;;;2.33;0.70;;;20.20;93.00;;;19.39;70.25;100925.50;10316816;28;96535;-91
2023/09/07 07:17:21;;;;;;;1.45;0.93;;;20.50;92.40;;;19.69;68.76;100914.28;10314046;28;98568;-90
2023/09/07 07:22:25;;;;;;;0.88;0.60;;;20.80;91.90;;;19.96;67.01;100920.44;10301131;28;96702;-91
2023/09/07 07:27:28;;;;;;;1.05;0.75;;;21.10;91.30;;;20.23;66.17;100923.88;10310081;28;96578;-91
2023/09/07 07:32:32;;;;;;;1.35;0.60;;;21.30;90.40;;;20.44;65.78;100926.28;10297355;28;98445;-91
2023/09/07 07:37:38;;;;;;;0.88;0.52;;;21.60;90.20;;;20.66;64.84;100929.53;10300620;28;96459;-92
2023/09/07 07:42:42;;;;;;;1.38;0.77;;;21.80;90.00;;;20.84;62.78;100916.09;10299245;28;96743;-91
2023/09/07 07:47:46;;;;;;;1.30;0.70;;;22.00;89.20;;;21.05;62.85;100923.03;10313777;28;96675;-91
2023/09/07 07:52:50;;;;;;;3.20;1.10;;;22.20;88.20;;;21.22;62.10;100922.47;10310239;28;96806;-90
2023/09/07 07:57:54;;;;;;;1.60;0.68;;;22.30;86.30;;;21.38;63.50;100913.84;10295313;28;97858;-91
2023/09/07 08:02:58;;;;;;;1.73;0.80;;;22.50;87.50;;;21.63;63.00;100908.41;10309049;28;97093;-90
2023/09/07 08:08:02;;;;;;;1.15;0.70;;;22.70;86.90;;;21.77;61.08;100903.69;10297425;28;96646;-90
2023/09/07 08:13:06;;;;;;;0.85;0.68;;;22.80;86.60;;;21.90;60.80;100909.81;10314950;28;96589;-91
2023/09/07 08:18:10;;;;;;;1.13;0.63;;;23.00;85.90;;;22.01;59.45;100902.81;10310284;28;97537;-91
2023/09/07 08:23:14;;;;;;;1.77;0.77;;;23.20;85.00;;;22.18;59.33;100903.03;10279952;28;97889;-91
2023/09/07 08:28:18;;;;;;;2.03;1.05;;;23.30;84.40;;;22.39;60.41;100897.16;10287530;28;98824;-90
2023/09/07 08:33:23;;;;;;;1.25;0.80;;;23.50;84.40;;;22.70;59.86;100901.50;10326855;28;96724;-90
2023/09/07 08:38:27;;;;;;;2.17;1.10;;;23.70;84.20;;;22.91;58.50;100892.06;10281018;28;96551;-91
2023/09/07 08:43:48;;;;;;;1.30;0.60;;;23.90;83.50;;;23.10;57.19;100881.97;10291010;28;96563;-90
2023/09/07 08:48:55;;;;;;;0.95;0.65;;;24.10;82.70;;;23.18;56.29;100878.91;10313082;28;96839;-91
2023/09/07 08:54:01;;;;;;;1.98;0.90;;;24.30;81.90;;;23.23;54.81;100873.59;10296444;28;96688;-90
2023/09/07 08:59:05;;;;;;;2.95;0.98;;;24.30;80.70;;;23.34;54.91;100876.56;10295370;28;96672;-90
2023/09/07 09:04:09;;;;;;;1.83;0.80;;;24.50;80.40;;;23.44;54.45;100866.75;10309243;28;98965;-91
2023/09/07 09:09:24;;;;;;;1.25;0.75;;;24.60;80.00;;;23.63;54.48;100869.34;10312675;28;96874;-92
2023/09/07 09:14:31;;;;;;;1.90;0.90;;;24.70;79.60;;;23.85;52.63;100862.25;10320745;28;96791;-90
2023/09/07 09:19:37;;;;;;;1.27;0.80;;;24.90;78.60;;;24.02;52.10;100857.72;10281695;28;97594;-90
2023/09/07 09:24:40;;;;;;;1.60;0.77;;;25.10;77.10;;;24.30;52.38;100858.81;10324103;28;96478;-90
2023/09/07 09:29:44;;;;;;;1.30;0.70;;;25.30;76.60;;;24.49;50.23;100854.84;10339577;28;97807;-89
2023/09/07 09:34:49;;;;;;;1.33;0.80;;;25.50;75.80;;;24.59;48.30;100856.94;10317111;28;96637;-89
2023/09/07 09:39:55;;;;;;;0.88;0.75;;;25.70;74.40;;;24.74;48.91;100859.91;10338044;27;96465;-90
2023/09/07 09:45:00;;;;;;;1.67;1.10;;;25.80;73.80;;;24.99;48.64;100848.63;10313173;28;98885;-91
2023/09/07 09:50:06;;;;;;;1.30;0.70;;;26.10;73.10;;;25.45;48.00;100848.56;10291056;28;97152;-89
2023/09/07 09:55:12;;;;;;;1.40;0.82;;;26.50;73.00;;;25.75;45.78;100848.16;10294993;28;96628;-90
2023/09/07 10:00:25;;;;;;;2.05;0.80;;;26.80;71.50;;;25.95;43.97;100832.06;10303878;28;96541;-89
2023/09/07 10:05:31;;;;;;;1.45;0.95;;;27.00;68.90;;;26.10;44.10;100823.28;10320714;28;96683;-89
2023/09/07 10:10:38;;;;;;;1.58;0.80;;;27.10;68.60;;;26.13;43.53;100836.38;10318746;28;97541;-89
2023/09/07 10:15:42;;;;;;;2.25;0.85;;;27.20;68.30;;;26.03;42.49;100822.63;10314948;28;96540;-88
2023/09/07 10:20:58;;;;;;;1.35;0.70;;;27.20;67.00;;;26.06;42.33;100825.66;10301214;28;96619;-88
2023/09/07 10:26:04;;;;;;;0.85;0.55;;;27.30;66.30;;;26.19;43.28;100824.44;10316831;28;96612;-89
2023/09/07 10:31:19;;;;;;;1.55;0.70;;;27.30;66.40;;;26.39;41.79;100827.41;10317478;28;97485;-89
2023/09/07 10:36:27;;;;;;;0.90;0.70;;;27.60;65.60;;;26.62;40.74;100809.09;10299280;28;97353;-88
2023/09/07 10:41:45;;;;;;;1.45;0.55;;;27.80;62.40;;;26.89;40.46;100803.59;10285866;28;97411;-91
2023/09/07 10:46:48;;;;;;;1.10;0.70;;;27.90;63.40;;;27.05;39.70;100796.31;10301394;28;97135;-91
2023/09/07 10:51:52;;;;;;;1.35;0.70;;;28.10;63.00;;;27.31;38.94;100792.72;10282422;28;96774;-91
2023/09/07 10:56:58;;;;;;;1.48;0.50;;;28.30;62.20;;;27.51;37.90;100791.97;10321283;28;96489;-90
2023/09/07 11:02:06;;;;;;;1.45;0.63;;;28.50;60.70;;;27.67;37.16;100792.88;10317287;28;96593;-90
2023/09/07 11:07:13;;;;;;;1.53;0.70;;;28.70;60.20;;;27.50;35.61;100773.97;10316200;28;96684;-89
2023/09/07 11:12:21;;;;;;;1.27;0.73;;;28.80;59.20;;;27.54;36.08;100780.53;10272649;28;97380;-90
2023/09/07 11:17:28;;;;;;;0.82;0.65;;;28.70;59.10;;;27.78;36.22;100780.94;10263544;28;98659;-90
2023/09/07 11:22:32;;;;;;;0.95;0.68;;;28.90;58.50;;;27.94;35.48;100781.78;10271223;28;96689;-90
2023/09/07 11:27:39;;;;;;;1.30;0.65;;;29.00;57.50;;;27.95;35.00;100773.34;10272275;28;98704;-88
2023/09/07 11:32:43;;;;;;;1.30;0.70;;;29.10;55.00;;;27.98;34.39;100770.06;10287920;28;96566;-90
2023/09/07 11:37:52;;;;;;;1.00;0.60;;;29.10;56.70;;;28.10;35.42;100755.34;10273052;28;97227;-90
2023/09/07 11:42:56;;;;;;;1.33;0.68;;;29.20;57.10;;;28.40;35.42;100760.84;10273751;28;96685;-90
2023/09/07 11:47:59;;;;;;;0.77;0.50;;;29.40;57.00;;;28.14;33.60;100759.19;10288006;28;96876;-89
2023/09/07 11:53:04;;;;;;;1.60;0.60;;;29.50;55.50;;;28.17;34.69;100748.50;10274976;28;96596;-90
2023/09/07 11:58:07;;;;;;;1.85;0.82;;;29.40;55.50;;;28.34;34.20;100748.28;10291334;28;96593;-90
2023/09/07 12:03:12;;;;;;;1.23;0.77;;;29.60;55.30;;;28.61;33.71;100738.97;10291208;28;96519;-91
2023/09/07 12:08:16;;;;;;;1.70;0.75;;;29.80;54.80;;;28.75;33.05;100734.59;10276884;28;97866;-89
2023/09/07 12:13:20;;;;;;;1.20;0.60;;;29.90;54.90;;;28.77;32.40;100729.66;10317364;28;97404;-89
2023/09/07 12:18:24;;;;;;;1.15;0.73;;;30.10;54.40;;;28.74;32.02;100732.97;10332268;28;96698;-90
2023/09/07 12:23:28;;;;;;;1.25;0.70;;;30.00;53.60;;;28.68;32.00;100737.63;10285889;28;96535;-90
2023/09/07 12:28:33;;;;;;;1.10;0.85;;;29.90;52.80;;;28.44;31.61;100745.56;10314804;28;96492;-90
2023/09/07 12:33:37;;;;;;;1.52;0.80;;;29.70;52.00;;;28.48;31.96;100730.22;10313521;28;96692;-90
2023/09/07 12:38:40;;;;;;;1.83;1.20;;;29.50;52.10;;;28.36;31.01;100720.69;10296921;28;96524;-89
2023/09/07 12:43:44;;;;;;;1.38;0.57;;;29.40;51.70;;;28.21;31.64;100722.28;10297105;28;98371;-89
2023/09/07 12:48:48;;;;;;;1.02;0.60;;;29.30;52.00;;;28.17;32.09;100717.63;10295890;28;97955;-89
2023/09/07 12:53:51;;;;;;;0.98;0.50;;;29.30;52.10;;;27.96;31.75;100720.34;10292849;28;98172;-90
2023/09/07 12:58:57;;;;;;;1.15;0.68;;;29.20;51.50;;;27.88;32.58;100715.41;10306213;28;96663;-90
2023/09/07 13:04:00;;;;;;;1.60;0.80;;;29.00;51.90;;;27.87;32.36;100721.97;10305966;28;96634;-90
2023/09/07 13:09:04;;;;;;;1.10;0.73;;;29.00;51.90;;;27.76;31.07;100709.38;10304363;28;97291;-89
2023/09/07 13:14:08;;;;;;;1.20;0.65;;;28.80;51.10;;;27.71;30.86;100712.13;10313599;28;98283;-89
2023/09/07 13:19:14;;;;;;;1.85;0.90;;;28.70;51.00;;;27.55;30.90;100700.28;10320133;28;96684;-90
2023/09/07 13:24:18;;;;;;;1.33;0.77;;;28.60;50.90;;;27.46;32.21;100690.97;10321269;28;96632;-89
2023/09/07 13:29:22;;;;;;;0.68;0.55;;;28.50;51.20;;;27.46;32.94;100694.50;10320168;28;96423;-89
2023/09/07 13:34:26;;;;;;;0.95;0.52;;;28.50;51.50;;;27.57;32.79;100697.28;10293150;28;96870;-90
2023/09/07 13:39:29;;;;;;;1.10;0.63;;;28.60;51.70;;;27.59;32.64;100703.28;10303169;28;96558;-90
2023/09/07 13:44:33;;;;;;;0.98;0.50;;;28.50;51.10;;;27.59;32.75;100704.13;10277814;28;96692;-89
2023/09/07 13:49:37;;;;;;;1.10;0.63;;;28.50;51.80;;;27.64;32.75;100684.19;10295878;28;96824;-89
2023/09/07 13:54:40;;;;;;;1.08;0.60;;;28.80;51.80;;;27.84;31.23;100689.75;10317980;28;98725;-89
2023/09/07 13:59:44;;;;;;;1.67;0.80;;;29.20;51.10;;;27.87;31.60;100678.25;10311881;28;98252;-89
2023/09/07 14:04:49;;;;;;;2.05;0.90;;;29.20;50.70;;;27.80;31.78;100676.91;10316816;28;97509;-89
2023/09/07 14:09:55;;;;;;;1.30;0.98;;;29.00;50.60;;;27.67;31.80;100678.22;10337666;28;96535;-89
2023/09/07 14:14:59;;;;;;;1.35;0.68;;;28.80;50.70;;;27.64;31.90;100681.47;10277399;28;97509;-90
2023/09/07 14:20:03;;;;;;;0.90;0.73;;;28.70;50.90;;;27.58;31.58;100669.72;10296152;28;96588;-90
2023/09/07 14:25:07;;;;;;;2.08;1.10;;;28.60;50.70;;;27.52;32.47;100667.25;10302958;28;96608;-90
2023/09/07 14:30:12;;;;;;;1.13;0.70;;;28.60;50.80;;;27.60;32.21;100672.19;10302270;28;96508;-90
2023/09/07 14:35:16;;;;;;;1.80;0.88;;;28.60;50.90;;;27.68;32.07;100674.38;10282754;28;98638;-89
2023/09/07 14:40:21;;;;;;;1.60;0.63;;;28.70;50.70;;;27.81;31.77;100667.59;10316344;28;98486;-90
2023/09/07 14:45:25;;;;;;;1.23;0.68;;;29.10;50.40;;;28.12;30.47;100660.25;10317601;28;96560;-90
2023/09/07 14:50:29;;;;;;;1.77;0.77;;;29.60;49.90;;;28.29;29.94;100655.34;10301725;28;97455;-90
2023/09/07 14:55:33;;;;;;;3.03;0.90;;;29.70;49.10;;;28.39;30.17;100658.09;10331504;28;96444;-90
2023/09/07 15:00:36;;;;;;;3.20;1.00;;;29.90;49.00;;;28.63;29.34;100658.34;10306476;28;96661;-90
2023/09/07 15:05:41;;;;;;;1.75;0.80;;;30.20;48.60;;;29.03;29.18;100656.63;10313780;28;96671;-90
2023/09/07 15:10:45;;;;;;;1.35;0.60;;;30.80;48.80;;;29.62;28.65;100647.56;10314419;28;96791;-90
2023/09/07 15:15:48;;;;;;;0.98;0.68;;;31.50;48.20;;;30.33;28.14;100651.69;10323741;28;96747;-92
2023/09/07 15:20:52;;;;;;;0.90;0.70;;;32.40;47.90;;;30.63;26.81;100634.09;10321785;28;96551;-91
2023/09/07 15:25:56;;;;;;;1.33;0.73;;;32.80;45.50;;;30.84;26.82;100643.78;10283933;28;96730;-90
2023/09/07 15:30:59;;;;;;;1.20;0.82;;;32.90;45.70;;;30.89;26.95;100641.00;10316533;28;96540;-91
2023/09/07 15:36:03;;;;;;;1.40;0.75;;;33.00;45.70;;;31.01;26.36;100639.72;10299440;28;96598;-90
2023/09/07 15:41:07;;;;;;;1.70;0.70;;;33.10;45.30;;;31.08;26.11;100637.47;10316608;28;96570;-90
2023/09/07 15:46:11;;;;;;;1.80;0.98;;;33.20;45.50;;;30.95;26.37;100644.50;10314600;28;96587;-90
2023/09/07 15:51:14;;;;;;;1.40;0.77;;;33.10;45.30;;;30.80;26.45;100636.44;10294704;28;98878;-91
2023/09/07 15:56:18;;;;;;;0.85;0.50;;;33.00;45.40;;;30.58;27.07;100647.88;10312597;28;97262;-90
2023/09/07 16:01:22;;;;;;;1.25;0.70;;;32.60;45.40;;;30.02;27.32;100653.84;10315157;28;96499;-90
2023/09/07 16:06:26;;;;;;;2.38;1.05;;;31.80;45.30;;;29.40;28.28;100660.81;10327739;28;96764;-90
2023/09/07 16:11:32;;;;;;;1.45;0.68;;;31.10;45.80;;;28.69;29.13;100648.19;10314692;28;96616;-90
2023/09/07 16:16:36;;;;;;;1.42;0.80;;;30.30;46.20;;;28.18;29.50;100656.44;10312898;28;96804;-90
2023/09/07 16:21:40;;;;;;;1.23;0.77;;;29.60;46.70;;;27.72;30.42;100670.06;10301470;28;96667;-90
2023/09/07 16:26:43;;;;;;;1.80;0.70;;;29.10;47.20;;;27.32;31.20;100670.72;10305726;28;96700;-90
2023/09/07 16:31:47;;;;;;;1.02;0.70;;;28.60;47.60;;;26.95;31.79;100677.91;10301938;28;98566;-90
2023/09/07 16:36:50;;;;;;;1.25;0.50;;;28.20;48.00;;;26.63;32.28;100683.47;10303468;28;96720;-90
2023/09/07 16:41:54;;;;;;;1.42;0.60;;;27.80;48.40;;;26.27;33.41;100681.50;10295915;28;96875;-90
2023/09/07 16:46:58;;;;;;;1.17;0.70;;;27.50;48.90;;;25.98;35.04;100683.72;10303891;28;97002;-91
2023/09/07 16:52:02;;;;;;;1.50;0.70;;;27.10;49.90;;;25.61;36.04;100695.28;10302862;28;96627;-91
2023/09/07 16:57:06;;;;;;;1.20;0.70;;;26.70;51.00;;;25.12;37.27;100687.06;10280648;28;97786;-91
2023/09/07 17:02:12;;;;;;;1.88;0.73;;;26.10;51.90;;;24.70;38.57;100692.16;10304049;28;98630;-90
2023/09/07 17:07:16;;;;;;;1.58;0.73;;;25.60;52.80;;;24.16;40.28;100689.91;10319896;28;96791;-90
2023/09/07 17:12:21;;;;;;;0.60;0.52;;;25.10;54.30;;;23.74;41.54;100709.25;10303035;28;96744;-90
2023/09/07 17:17:24;;;;;;;2.00;0.93;;;24.70;55.10;;;23.36;42.43;100720.69;10315047;28;97005;-89
2023/09/07 17:22:28;;;;;;;2.70;0.80;;;24.30;56.30;;;23.02;43.81;100727.78;10303333;28;96657;-89
2023/09/07 17:27:32;;;;;;;1.33;0.70;;;23.90;57.20;;;22.63;44.48;100724.72;10289822;28;96565;-89
2023/09/07 17:32:35;;;;;;;1.65;0.90;;;23.50;57.90;;;22.37;45.61;100733.25;10288232;28;96716;-89
2023/09/07 17:37:40;;;;;;;2.58;1.00;;;23.30;59.30;;;22.04;46.26;100739.97;10299414;28;96768;-89
2023/09/07 17:42:43;;;;;;;1.58;0.93;;;22.90;59.20;;;21.84;46.06;100747.56;10357295;28;96606;-90
2023/09/07 17:47:47;;;;;;;1.15;0.80;;;22.70;60.40;;;21.67;46.51;100751.94;10317360;28;97009;-89
2023/09/07 17:52:51;;;;;;;0.88;0.70;;;22.50;60.00;;;21.45;47.78;100751.56;10303712;28;96714;-89
2023/09/07 17:57:54;;;;;;;2.15;1.00;;;22.40;61.20;;;21.24;48.38;100756.34;10311375;28;96797;-88
2023/09/07 18:02:59;;;;;;;1.88;0.82;;;22.20;62.00;;;21.08;49.74;100767.75;10337126;28;96552;-89
2023/09/07 18:08:04;;;;;;;1.42;1.00;;;21.90;63.30;;;20.85;50.72;100771.06;10287579;28;96769;-89
2023/09/07 18:13:08;;;;;;;2.38;1.20;;;21.70;64.40;;;20.68;51.35;100772.66;10317261;28;96669;-89
2023/09/07 18:18:13;;;;;;;1.75;0.77;;;21.60;65.10;;;20.49;52.56;100780.69;10333435;28;96501;-88
2023/09/07 18:23:17;;;;;;;1.85;1.00;;;21.40;65.40;;;20.31;53.11;100777.91;10360060;28;96499;-88
2023/09/07 18:28:21;;;;;;;1.40;0.63;;;21.20;66.00;;;20.14;53.49;100771.34;10355361;28;96518;-88
2023/09/07 18:33:24;;;;;;;2.17;0.85;;;21.00;66.60;;;20.00;54.74;100790.31;10323779;28;96582;-88
2023/09/07 18:38:29;;;;;;;1.60;1.05;;;20.90;67.40;;;19.89;55.71;100790.16;10319350;28;97165;-90
2023/09/07 18:43:34;;;;;;;1.48;0.82;;;20.80;68.20;;;19.75;56.61;100786.72;10283948;28;97514;-90
2023/09/07 18:48:38;;;;;;;2.45;0.90;;;20.60;69.70;;;19.59;58.52;100784.47;10291989;28;98259;-90
2023/09/07 18:53:42;;;;;;;1.38;0.70;;;20.50;70.90;;;19.54;58.04;100801.25;10300220;28;96571;-91
2023/09/07 18:58:46;;;;;;;2.03;1.00;;;20.40;70.00;;;19.44;59.38;100795.50;10294499;28;97615;-89
2023/09/07 19:04:07;;;;;;;1.70;0.95;;;20.30;71.30;;;19.44;59.82;100795.50;10299625;28;97446;-89
2023/09/07 19:09:10;;;;;;;1.50;0.95;;;20.30;72.20;;;19.44;60.63;100801.72;10290753;28;96672;-90
2023/09/07 19:14:14;;;;;;;2.25;0.80;;;20.30;71.90;;;19.32;61.01;100784.53;10301109;28;98066;-90
2023/09/07 19:19:18;;;;;;;1.63;0.80;;;20.30;72.50;;;19.36;61.33;100803.78;10314279;28;96570;-90
2023/09/07 19:24:22;;;;;;;2.28;0.82;;;20.30;73.00;;;19.38;61.69;100805.25;10301014;28;96691;-89
2023/09/07 19:29:25;;;;;;;1.38;0.80;;;20.30;73.70;;;19.29;62.67;100808.38;10321802;28;98624;-89
2023/09/07 19:34:29;;;;;;;1.02;0.63;;;20.20;73.30;;;19.23;62.75;100800.09;10310679;28;96912;-90
2023/09/07 19:39:33;;;;;;;1.45;0.85;;;20.20;73.80;;;19.13;64.33;100794.31;10299934;28;96478;-90
2023/09/07 19:44:37;;;;;;;2.40;0.93;;;20.10;75.50;;;19.06;63.98;100803.44;10315716;28;96804;-90
2023/09/07 19:49:41;;;;;;;1.35;1.05;;;20.00;75.30;;;18.96;65.13;100791.22;10296374;28;98118;-90
2023/09/07 19:54:49;;;;;;;1.13;0.50;;;19.90;75.70;;;18.93;65.51;100793.50;10315325;28;96573;-90
2023/09/07 19:59:53;;;;;;;1.88;0.80;;;19.80;75.90;;;18.81;66.20;100793.28;10314614;28;96622;-90
2023/09/07 20:04:57;;;;;;;1.55;0.80;;;19.70;77.50;;;18.65;67.18;100790.97;10315327;28;99309;-90
2023/09/07 20:10:01;;;;;;;1.65;0.70;;;19.60;77.60;;;18.53;67.97;100792.63;10327394;28;97507;-89
2023/09/07 20:15:05;;;;;;;1.40;0.80;;;19.50;78.20;;;18.37;68.90;100810.81;10313487;28;96714;-89
2023/09/07 20:20:09;;;;;;;1.65;0.98;;;19.30;79.30;;;18.27;69.07;100804.16;10311826;28;96586;-90
2023/09/07 20:25:13;;;;;;;1.63;0.77;;;19.20;80.10;;;18.09;69.85;100802.88;10298268;28;97454;-90
2023/09/07 20:30:17;;;;;;;1.65;0.70;;;19.10;80.20;;;17.98;71.09;100806.16;10296704;28;97490;-89
2023/09/07 20:35:22;;;;;;;1.77;0.93;;;19.00;81.70;;;17.86;71.39;100799.69;10313010;28;96569;-89
2023/09/07 20:40:27;;;;;;;1.38;0.70;;;18.90;82.10;;;17.78;72.30;100802.56;10287147;28;96772;-89
2023/09/07 20:45:31;;;;;;;1.27;0.88;;;18.80;83.20;;;17.67;73.96;100810.13;10295512;28;96748;-89
2023/09/07 20:50:35;;;;;;;2.28;1.10;;;18.70;83.60;;;17.59;74.90;100814.84;10287387;28;96730;-89